Latest Coastal Weather Observations for Barrow Island

IDW60701

Issued at 2:25 am WST Saturday 1 November 2014 (issued every 10 minutes, with the page automatically refreshed every 10 minutes)

About coastal observations | Map of coastal stations | Coastal observations for WA | Marine services | Other Formats
Station Details ID: 005094 Name: BARROW ISLAND AIRPORT Lat: -20.88 Lon: 115.41 Height: 6.4 m
Data from the previous 72 hours. | See also: Recent months at Barrow Island
Date/Time
WST
Temp

°C
Wind Pressure Rain
since 9am
mm
Weather Cloud Vis
km
Sea
Height
m
Swell
Dir
 
Speed
knots
Gust
knots
hPa Trend Height
m
Period
s
Dir
01/02:00am 24.4 SSW 19 23 1009.7 - 0.0 - - - - - - -
01/01:30am 24.3 SSW 19 23 1009.7 - 0.0 - - - - - - -
01/01:00am 24.2 SSW 19 22 1009.8 - 0.0 - - - - - - -
01/12:30am 24.0 SSW 21 24 1010.0 - 0.0 - - - - - - -
01/12:00am 24.0 SW 20 24 1010.4 - 0.0 - - - - - - -
 
Date/Time
WST
Temp

°C
Wind Pressure Rain
since 9am
mm
Weather Cloud Vis
km
Sea
Height
m
Swell
Dir
 
Speed
knots
Gust
knots
hPa Trend Height
m
Period
s
Dir
31/11:00pm 24.0 SW 20 23 1010.8 - 0.0 - - - - - - -
31/10:30pm 24.1 SW 20 23 1011.1 - 0.0 - - - - - - -
31/10:00pm 24.3 SW 19 24 1011.1 - 0.0 - - - - - - -
31/09:30pm 24.5 SW 17 21 1011.1 - 0.0 - - - - - - -
31/09:00pm 24.4 WSW 15 18 1011.0 - 0.0 - - - - - - -
31/08:30pm 24.4 WSW 15 21 1010.8 - 0.0 - - - - - - -
31/08:00pm 24.4 WSW 16 20 1010.5 - 0.0 - - - - - - -
31/07:30pm 24.1 WSW 15 18 1010.2 - 0.0 - - - - - - -
31/07:00pm 24.3 WSW 14 17 1009.8 - 0.0 - - - - - - -
31/06:30pm 24.6 WSW 15 18 1009.6 - 0.0 - - - - - - -
31/06:00pm 25.2 WSW 17 21 1009.4 - 0.0 - - - - - - -
31/05:30pm 25.8 WSW 18 21 1009.2 - 0.0 - - - - - - -
31/05:00pm 26.3 WSW 18 22 1009.0 - 0.0 - - - - - - -
31/04:30pm 27.3 WSW 19 23 1009.1 - 0.0 - - - - - - -
31/04:00pm 27.1 WSW 19 23 1009.2 - 0.0 - - - - - - -
31/03:30pm 27.0 SW 18 22 1009.5 - 0.0 - - - - - - -
31/03:00pm 27.0 WSW 19 23 1009.5 - 0.0 - - - - - - -
31/02:30pm 26.6 SW 19 23 1009.8 - 0.0 - - - - - - -
31/02:00pm 26.5 SW 20 22 1010.2 - 0.0 - - - - - - -
31/01:30pm 26.3 SW 18 21 1010.6 - 0.0 - - - - - - -
31/01:00pm 25.9 SW 18 21 1011.0 - 0.0 - - - - - - -
31/12:30pm 26.1 SW 19 22 1011.5 - 0.0 - - - - - - -
31/12:00pm 25.6 SW 20 25 1011.9 - 0.0 - - - - - - -
31/11:30am 25.4 SW 20 23 1012.1 - 0.0 - - - - - - -
31/11:00am 25.3 SW 19 23 1012.3 - 0.0 - - - - - - -
31/10:30am 24.6 SSW 20 23 1012.4 - 0.0 - - - - - - -
31/10:00am 24.5 SSW 19 22 1012.5 - 0.0 - - - - - - -
31/09:30am 23.9 SSW 19 23 1012.5 - 0.0 - - - - - - -
31/09:00am 23.7 SSW 18 21 1012.5 - 0.0 - - - - - - -
31/08:30am 23.2 SSW 17 20 1012.5 - 0.0 - - - - - - -
31/08:00am 23.0 SSW 17 19 1012.4 - 0.0 - - - - - - -
31/07:30am 22.7 SSW 18 21 1012.5 - 0.0 - - - - - - -
31/07:00am 22.3 SSW 19 21 1012.3 - 0.0 - - - - - - -
31/06:30am 22.4 SSW 20 23 1012.3 - 0.0 - - - - - - -
31/06:00am 22.1 SSW 20 23 1012.0 - 0.0 - - - - - - -
31/05:30am 22.4 SSW 20 24 1011.7 - 0.0 - - - - - - -
31/05:00am 22.3 SSW 20 24 1011.4 - 0.0 - - - - - - -
31/04:30am 22.4 SSW 22 26 1011.3 - 0.0 - - - - - - -
31/04:00am 22.9 SSW 23 27 1011.0 - 0.0 - - - - - - -
31/03:30am 23.2 SSW 23 27 1010.8 - 0.0 - - - - - - -
31/03:00am 23.3 SSW 22 26 1010.7 - 0.0 - - - - - - -
31/02:30am 23.4 SSW 21 25 1010.5 - 0.0 - - - - - - -
31/02:00am 23.6 SSW 22 25 1010.4 - 0.0 - - - - - - -
31/01:30am 23.9 SSW 23 26 1010.6 - 0.0 - - - - - - -
31/01:00am 23.9 SSW 23 27 1010.9 - 0.0 - - - - - - -
31/12:30am 23.9 SSW 23 28 1011.2 - 0.0 - - - - - - -
31/12:00am 24.1 SSW 23 28 1011.4 - 0.0 - - - - - - -
 
Date/Time
WST
Temp

°C
Wind Pressure Rain
since 9am
mm
Weather Cloud Vis
km
Sea
Height
m
Swell
Dir
 
Speed
knots
Gust
knots
hPa Trend Height
m
Period
s
Dir
30/11:30pm 24.1 SW 23 27 1011.7 - 0.0 - - - - - - -
30/11:00pm 24.2 SW 24 27 1011.9 - 0.0 - - - - - - -
30/10:30pm 24.2 SSW 25 30 1012.0 - 0.0 - - - - - - -
30/10:00pm 24.3 SW 20 25 1012.0 - 0.0 - - - - - - -
30/09:30pm 24.2 SW 18 21 1011.8 - 0.0 - - - - - - -
30/09:00pm 24.6 WSW 16 20 1011.6 - 0.0 - - - - - - -
30/08:30pm 24.8 WSW 14 17 1011.4 - 0.0 - - - - - - -
30/08:00pm 24.9 WSW 15 17 1011.2 - 0.0 - - - - - - -
30/07:30pm 24.9 WSW 15 19 1010.9 - 0.0 - - - - - - -
30/07:00pm 25.0 WSW 17 20 1010.5 - 0.0 - - - - - - -
30/06:30pm 25.2 WSW 16 21 1010.1 - 0.0 - - - - - - -
30/06:00pm 25.9 WSW 17 21 1009.9 - 0.0 - - - - - - -
30/05:30pm 26.4 WSW 18 22 1009.6 - 0.0 - - - - - - -
30/05:00pm 26.9 WSW 20 24 1009.5 - 0.0 - - - - - - -
30/04:30pm 27.7 WSW 19 24 1009.4 - 0.0 - - - - - - -
30/04:00pm 28.1 WSW 20 22 1009.5 - 0.0 - - - - - - -
30/03:30pm 28.1 WSW 19 24 1009.7 - 0.0 - - - - - - -
30/03:00pm 28.3 WSW 19 23 1009.9 - 0.0 - - - - - - -
30/02:30pm 28.2 WSW 19 23 1010.1 - 0.0 - - - - - - -
30/02:00pm 28.6 WSW 18 22 1010.2 - 0.0 - - - - - - -
30/01:30pm 28.5 WSW 17 20 1010.5 - 0.0 - - - - - - -
30/01:00pm 28.7 WSW 16 20 1010.7 - 0.0 - - - - - - -
30/12:30pm 28.4 SW 16 19 1011.0 - 0.0 - - - - - - -
30/12:00pm 28.0 SW 16 19 1011.2 - 0.0 - - - - - - -
30/11:30am 27.4 SW 16 19 1011.6 - 0.0 - - - - - - -
30/11:00am 27.3 SW 16 18 1011.8 - 0.0 - - - - - - -
30/10:30am 26.8 SW 16 18 1012.2 - 0.0 - - - - - - -
30/10:00am 26.3 SW 17 20 1012.4 - 0.0 - - - - - - -
30/09:30am 26.1 SSW 18 21 1012.4 - 0.0 - - - - - - -
30/09:00am 25.6 SSW 18 21 1012.2 - 0.0 - - - - - - -
30/08:30am 25.7 SSW 16 19 1012.5 - 0.0 - - - - - - -
30/08:00am 25.3 SSW 16 18 1012.4 - 0.0 - - - - - - -
30/07:30am 24.9 SSW 14 17 1012.2 - 0.0 - - - - - - -
30/07:00am 24.6 SSW 16 18 1012.1 - 0.0 - - - - - - -
30/06:30am 24.4 SSW 15 17 1012.0 - 0.0 - - - - - - -
30/06:00am 24.1 SSW 14 17 1011.7 - 0.0 - - - - - - -
30/05:30am 24.1 SSW 14 17 1011.5 - 0.0 - - - - - - -
30/05:00am 24.5 SSW 15 17 1011.4 - 0.0 - - - - - - -
30/04:30am 24.5 SSW 15 17 1011.2 - 0.0 - - - - - - -
30/04:00am 24.6 SSW 15 18 1011.1 - 0.0 - - - - - - -
30/03:30am 24.7 SSW 15 19 1011.0 - 0.0 - - - - - - -
30/03:00am 24.7 SSW 16 20 1010.9 - 0.0 - - - - - - -
30/02:30am 24.6 SSW 18 21 1010.8 - 0.0 - - - - - - -
30/02:00am 24.6 SSW 18 21 1010.9 - 0.0 - - - - - - -
30/01:30am 24.6 SSW 18 22 1011.2 - 0.0 - - - - - - -
30/01:00am 24.8 SSW 19 21 1011.3 - 0.0 - - - - - - -
30/12:30am 24.6 SSW 19 23 1011.5 - 0.0 - - - - - - -
30/12:00am 24.4 SW 20 23 1011.7 - 0.0 - - - - - - -
 
Date/Time
WST
Temp

°C
Wind Pressure Rain
since 9am
mm
Weather Cloud Vis
km
Sea
Height
m
Swell
Dir
 
Speed
knots
Gust
knots
hPa Trend Height
m
Period
s
Dir
29/11:30pm 24.5 SW 20 24 1012.0 - 0.0 - - - - - - -
29/11:00pm 24.3 SW 17 21 1012.0 - 0.0 - - - - - - -
29/10:30pm 24.1 SW 15 19 1012.2 - 0.0 - - - - - - -
29/10:00pm 24.1 WSW 15 18 1012.4 - 0.0 - - - - - - -
29/09:30pm 24.4 WSW 15 18 1012.2 - 0.0 - - - - - - -
29/09:00pm 24.5 WSW 14 17 1012.0 - 0.0 - - - - - - -
29/08:30pm 24.6 WSW 14 17 1011.9 - 0.0 - - - - - - -
29/08:00pm 24.4 WSW 14 17 1011.7 - 0.0 - - - - - - -
29/07:30pm 24.6 WSW 13 16 1011.6 - 0.0 - - - - - - -
29/07:00pm 24.8 WSW 14 17 1011.4 - 0.0 - - - - - - -
29/06:30pm 25.3 WSW 13 17 1011.1 - 0.0 - - - - - - -
29/06:00pm 25.9 WSW 15 19 1011.0 - 0.0 - - - - - - -
29/05:30pm 26.5 WSW 16 20 1010.8 - 0.0 - - - - - - -
29/05:00pm 26.9 WSW 16 19 1010.7 - 0.0 - - - - - - -
29/04:30pm 27.1 WSW 18 21 1010.6 - 0.0 - - - - - - -
29/04:00pm 28.1 WSW 17 21 1010.6 - 0.0 - - - - - - -
29/03:30pm 28.9 WSW 17 19 1010.7 - 0.0 - - - - - - -
29/03:00pm 28.8 WSW 16 19 1010.9 - 0.0 - - - - - - -
29/02:30pm 28.8 WSW 15 18 1011.2 - 0.0 - - - - - - -
29/02:00pm 28.6 WSW 15 17 1011.3 - 0.0 - - - - - - -
29/01:30pm 28.8 SW 13 15 1011.5 - 0.0 - - - - - - -
29/01:00pm 27.8 SW 13 16 1011.9 - 0.0 - - - - - - -
29/12:30pm 27.7 SW 13 15 1012.3 - 0.0 - - - - - - -
29/12:00pm 26.8 SW 14 18 1012.8 - 0.0 - - - - - - -
29/11:30am 27.0 SW 13 16 1013.0 - 0.0 - - - - - - -
29/11:00am 26.3 SSW 14 17 1013.0 - 0.0 - - - - - - -
29/10:30am 26.3 SSW 14 17 1013.3 - 0.0 - - - - - - -
29/10:00am 26.0 SW 15 18 1013.3 - 0.0 - - - - - - -
29/09:30am 25.7 SSW 16 19 1013.2 - 0.0 - - - - - - -
29/09:00am 24.7 SSW 17 19 1013.2 - 0.0 - - - - - - -
29/08:30am 24.6 SSW 17 19 1013.2 - 0.0 - - - - - - -
29/08:00am 24.5 SSW 16 18 1012.8 - 0.0 - - - - - - -
29/07:30am 24.1 SSW 15 17 1012.7 - 0.0 - - - - - - -
29/07:00am 23.8 SSW 15 17 1012.5 - 0.0 - - - - - - -
29/06:30am 23.5 SSW 17 20 1012.1 - 0.0 - - - - - - -
29/06:00am 23.1 SW 17 20 1011.8 - 0.0 - - - - - - -
29/05:30am 23.4 SW 17 20 1011.7 - 0.0 - - - - - - -
29/05:00am 23.7 SW 17 20 1011.5 - 0.0 - - - - - - -
29/04:30am 23.5 SW 16 19 1011.2 - 0.0 - - - - - - -
29/04:00am 23.7 SW 13 17 1011.0 - 0.0 - - - - - - -
29/03:30am 23.9 SW 13 15 1010.9 - 0.0 - - - - - - -
29/03:00am 24.3 SW 14 17 1010.7 - 0.0 - - - - - - -
29/02:30am 24.3 SSW 16 19 1010.6 - 0.0 - - - - - - -

Other Formats:

Comma delimited format used in spreadsheet applications
http://www.bom.gov.au/fwo/IDW60701/IDW60701.95304.axf

JavaScript Object Notation format (JSON) in row-major order
http://www.bom.gov.au/fwo/IDW60701/IDW60701.95304.json